sensor_id;sensor_type;location;lat;lon;timestamp;pressure;altitude;pressure_sealevel;temperature;humidity
43553;BME280;29153;42.696;23.218;2023-02-20T00:00:55;94777.77;;;8.35;72.58
43553;BME280;29153;42.696;23.218;2023-02-20T00:03:22;94783.32;;;8.36;72.48
43553;BME280;29153;42.696;23.218;2023-02-20T00:05:51;94781.72;;;8.35;72.47
43553;BME280;29153;42.696;23.218;2023-02-20T00:08:19;94770.23;;;8.21;73.19
43553;BME280;29153;42.696;23.218;2023-02-20T00:10:48;94766.41;;;8.32;72.99
43553;BME280;29153;42.696;23.218;2023-02-20T00:13:16;94761.67;;;8.34;73.10
43553;BME280;29153;42.696;23.218;2023-02-20T00:15:43;94761.64;;;8.31;73.17
43553;BME280;29153;42.696;23.218;2023-02-20T00:18:11;94759.48;;;8.28;73.20
43553;BME280;29153;42.696;23.218;2023-02-20T00:20:38;94765.80;;;8.24;73.77
43553;BME280;29153;42.696;23.218;2023-02-20T00:23:06;94751.00;;;8.21;73.98
43553;BME280;29153;42.696;23.218;2023-02-20T00:25:33;94755.66;;;8.11;74.43
43553;BME280;29153;42.696;23.218;2023-02-20T00:28:01;94710.06;;;7.84;74.91
43553;BME280;29153;42.696;23.218;2023-02-20T00:30:28;94755.95;;;8.17;74.98
43553;BME280;29153;42.696;23.218;2023-02-20T00:32:56;94750.16;;;8.18;74.98
43553;BME280;29153;42.696;23.218;2023-02-20T00:35:25;94752.80;;;8.15;75.05
43553;BME280;29153;42.696;23.218;2023-02-20T00:37:53;94752.09;;;8.28;74.57
43553;BME280;29153;42.696;23.218;2023-02-20T00:40:21;94742.37;;;8.31;74.37
43553;BME280;29153;42.696;23.218;2023-02-20T00:42:49;94739.94;;;8.27;74.37
43553;BME280;29153;42.696;23.218;2023-02-20T00:45:17;94741.00;;;8.26;74.32
43553;BME280;29153;42.696;23.218;2023-02-20T00:47:45;94743.08;;;8.21;74.50
43553;BME280;29153;42.696;23.218;2023-02-20T00:50:14;94765.14;;;8.10;74.94
43553;BME280;29153;42.696;23.218;2023-02-20T00:52:42;94779.59;;;8.02;75.33
43553;BME280;29153;42.696;23.218;2023-02-20T00:55:10;94786.42;;;7.98;75.61
43553;BME280;29153;42.696;23.218;2023-02-20T00:57:37;94786.65;;;7.94;75.65
43553;BME280;29153;42.696;23.218;2023-02-20T01:00:08;94793.75;;;7.91;75.91
43553;BME280;29153;42.696;23.218;2023-02-20T01:02:35;94796.91;;;7.91;75.88
43553;BME280;29153;42.696;23.218;2023-02-20T01:05:04;94809.75;;;7.82;76.33
43553;BME280;29153;42.696;23.218;2023-02-20T01:07:36;94818.92;;;7.77;76.65
43553;BME280;29153;42.696;23.218;2023-02-20T01:10:05;94818.11;;;7.74;77.18
43553;BME280;29153;42.696;23.218;2023-02-20T01:12:35;94821.52;;;7.74;77.27
43553;BME280;29153;42.696;23.218;2023-02-20T01:15:04;94808.08;;;7.73;77.39
43553;BME280;29153;42.696;23.218;2023-02-20T01:17:30;94813.65;;;7.77;77.35
43553;BME280;29153;42.696;23.218;2023-02-20T01:19:57;94811.73;;;7.70;77.81
43553;BME280;29153;42.696;23.218;2023-02-20T01:22:25;94809.63;;;7.69;77.84
43553;BME280;29153;42.696;23.218;2023-02-20T01:24:53;94821.73;;;7.70;78.36
43553;BME280;29153;42.696;23.218;2023-02-20T01:27:24;94822.02;;;7.71;78.32
43553;BME280;29153;42.696;23.218;2023-02-20T01:29:54;94816.81;;;7.79;78.20
43553;BME280;29153;42.696;23.218;2023-02-20T01:32:22;94820.30;;;7.82;78.20
43553;BME280;29153;42.696;23.218;2023-02-20T01:34:52;94761.46;;;7.52;78.12
43553;BME280;29153;42.696;23.218;2023-02-20T01:37:20;94815.20;;;8.02;77.65
43553;BME280;29153;42.696;23.218;2023-02-20T01:39:50;94824.44;;;8.02;77.52
43553;BME280;29153;42.696;23.218;2023-02-20T01:42:20;94829.77;;;8.07;77.61
43553;BME280;29153;42.696;23.218;2023-02-20T01:44:49;94838.55;;;8.15;77.48
43553;BME280;29153;42.696;23.218;2023-02-20T01:47:24;94840.30;;;8.32;77.17
43553;BME280;29153;42.696;23.218;2023-02-20T01:49:54;94842.09;;;8.29;77.74
43553;BME280;29153;42.696;23.218;2023-02-20T01:52:26;94825.78;;;8.32;77.93
43553;BME280;29153;42.696;23.218;2023-02-20T01:55:16;94833.17;;;8.30;77.99
43553;BME280;29153;42.696;23.218;2023-02-20T01:58:06;94854.06;;;8.36;77.67
43553;BME280;29153;42.696;23.218;2023-02-20T02:00:19;94848.51;;;8.35;77.93
43553;BME280;29153;42.696;23.218;2023-02-20T02:02:56;94859.25;;;8.29;78.20
43553;BME280;29153;42.696;23.218;2023-02-20T02:05:21;94844.93;;;8.22;78.09
43553;BME280;29153;42.696;23.218;2023-02-20T02:07:51;94847.56;;;8.19;77.94
43553;BME280;29153;42.696;23.218;2023-02-20T02:10:23;94844.81;;;8.09;77.81
43553;BME280;29153;42.696;23.218;2023-02-20T02:12:55;94854.79;;;8.05;77.52
43553;BME280;29153;42.696;23.218;2023-02-20T02:15:22;94855.02;;;8.01;77.75
43553;BME280;29153;42.696;23.218;2023-02-20T02:24:01;94842.80;;;7.92;76.05
43553;BME280;29153;42.696;23.218;2023-02-20T02:26:54;94855.38;;;7.83;76.97
43553;BME280;29153;42.696;23.218;2023-02-20T02:38:06;94877.22;;;7.35;79.01
43553;BME280;29153;42.696;23.218;2023-02-20T02:46:00;94868.18;;;7.09;80.15
43553;BME280;29153;42.696;23.218;2023-02-20T02:48:27;94870.22;;;7.04;80.35
43553;BME280;29153;42.696;23.218;2023-02-20T02:50:57;94865.38;;;6.96;81.09
43553;BME280;29153;42.696;23.218;2023-02-20T02:53:25;94870.43;;;7.00;80.72
43553;BME280;29153;42.696;23.218;2023-02-20T02:55:53;94857.89;;;6.88;81.26
43553;BME280;29153;42.696;23.218;2023-02-20T02:58:20;94874.48;;;6.89;81.48
43553;BME280;29153;42.696;23.218;2023-02-20T03:00:51;94886.56;;;6.87;81.47
43553;BME280;29153;42.696;23.218;2023-02-20T03:03:22;94872.88;;;6.88;81.72
43553;BME280;29153;42.696;23.218;2023-02-20T03:05:54;94873.38;;;6.84;81.57
43553;BME280;29153;42.696;23.218;2023-02-20T03:09:00;94892.13;;;6.88;81.30
43553;BME280;29153;42.696;23.218;2023-02-20T03:11:28;94877.25;;;6.79;81.49
43553;BME280;29153;42.696;23.218;2023-02-20T03:14:03;94891.86;;;6.90;80.68
43553;BME280;29153;42.696;23.218;2023-02-20T03:16:50;94898.91;;;6.84;80.51
43553;BME280;29153;42.696;23.218;2023-02-20T03:19:22;94909.16;;;6.83;80.43
43553;BME280;29153;42.696;23.218;2023-02-20T03:21:50;94911.93;;;6.76;80.53
43553;BME280;29153;42.696;23.218;2023-02-20T03:24:19;94913.22;;;6.74;80.52
43553;BME280;29153;42.696;23.218;2023-02-20T03:26:52;94916.42;;;6.76;80.21
43553;BME280;29153;42.696;23.218;2023-02-20T03:29:30;94912.70;;;6.74;80.12
43553;BME280;29153;42.696;23.218;2023-02-20T03:32:06;94928.27;;;6.76;79.75
43553;BME280;29153;42.696;23.218;2023-02-20T03:34:52;94925.95;;;6.63;80.44
43553;BME280;29153;42.696;23.218;2023-02-20T03:37:38;94922.01;;;6.63;80.23
43553;BME280;29153;42.696;23.218;2023-02-20T03:40:26;94914.37;;;6.64;80.29
43553;BME280;29153;42.696;23.218;2023-02-20T03:43:18;94912.62;;;6.53;80.53
43553;BME280;29153;42.696;23.218;2023-02-20T03:46:01;94914.88;;;6.47;80.79
43553;BME280;29153;42.696;23.218;2023-02-20T03:48:44;94930.72;;;6.49;80.55
43553;BME280;29153;42.696;23.218;2023-02-20T03:51:11;94925.48;;;6.52;80.42
43553;BME280;29153;42.696;23.218;2023-02-20T03:53:41;94917.95;;;6.41;80.64
43553;BME280;29153;42.696;23.218;2023-02-20T03:56:21;94913.86;;;6.33;80.75
43553;BME280;29153;42.696;23.218;2023-02-20T03:58:53;94913.02;;;6.30;81.17
43553;BME280;29153;42.696;23.218;2023-02-20T04:01:22;94935.16;;;6.32;80.95
43553;BME280;29153;42.696;23.218;2023-02-20T04:03:51;94938.63;;;6.35;81.32
43553;BME280;29153;42.696;23.218;2023-02-20T04:06:24;94941.48;;;6.48;80.75
43553;BME280;29153;42.696;23.218;2023-02-20T04:08:56;94951.98;;;6.62;80.12
43553;BME280;29153;42.696;23.218;2023-02-20T04:11:40;94963.87;;;6.81;79.15
43553;BME280;29153;42.696;23.218;2023-02-20T04:14:10;94969.42;;;6.99;78.02
43553;BME280;29153;42.696;23.218;2023-02-20T04:16:48;94973.89;;;6.98;77.98
43553;BME280;29153;42.696;23.218;2023-02-20T04:19:13;94959.73;;;7.18;77.05
43553;BME280;29153;42.696;23.218;2023-02-20T04:21:44;94960.48;;;7.16;77.33
43553;BME280;29153;42.696;23.218;2023-02-20T04:24:17;94954.19;;;7.17;77.46
43553;BME280;29153;42.696;23.218;2023-02-20T04:26:45;94950.52;;;7.18;77.69
43553;BME280;29153;42.696;23.218;2023-02-20T04:29:13;94945.19;;;7.16;77.78
43553;BME280;29153;42.696;23.218;2023-02-20T04:31:40;94950.46;;;7.16;77.63
43553;BME280;29153;42.696;23.218;2023-02-20T04:34:08;94953.98;;;7.21;77.01
43553;BME280;29153;42.696;23.218;2023-02-20T04:36:37;94974.69;;;7.15;77.11
43553;BME280;29153;42.696;23.218;2023-02-20T04:39:05;94977.59;;;6.97;76.60
43553;BME280;29153;42.696;23.218;2023-02-20T04:41:34;94985.48;;;6.97;76.21
43553;BME280;29153;42.696;23.218;2023-02-20T04:44:01;94975.61;;;6.90;76.05
43553;BME280;29153;42.696;23.218;2023-02-20T04:46:51;94975.92;;;6.77;75.89
43553;BME280;29153;42.696;23.218;2023-02-20T04:49:20;94974.47;;;6.83;75.50
43553;BME280;29153;42.696;23.218;2023-02-20T04:51:49;94961.09;;;6.71;75.02
43553;BME280;29153;42.696;23.218;2023-02-20T04:54:17;94971.34;;;6.70;75.03
43553;BME280;29153;42.696;23.218;2023-02-20T04:56:44;94969.09;;;6.62;74.50
43553;BME280;29153;42.696;23.218;2023-02-20T04:59:12;94987.04;;;6.65;74.29
43553;BME280;29153;42.696;23.218;2023-02-20T05:01:39;94984.31;;;6.60;73.88
43553;BME280;29153;42.696;23.218;2023-02-20T05:04:08;94993.43;;;6.55;74.22
43553;BME280;29153;42.696;23.218;2023-02-20T05:06:41;94985.28;;;6.39;74.65
43553;BME280;29153;42.696;23.218;2023-02-20T05:09:09;94988.20;;;6.40;73.61
43553;BME280;29153;42.696;23.218;2023-02-20T05:11:37;94990.35;;;6.44;72.99
43553;BME280;29153;42.696;23.218;2023-02-20T05:14:05;94990.92;;;6.31;73.24
43553;BME280;29153;42.696;23.218;2023-02-20T05:16:33;94990.27;;;6.24;73.20
43553;BME280;29153;42.696;23.218;2023-02-20T05:19:00;94996.08;;;6.26;73.17
43553;BME280;29153;42.696;23.218;2023-02-20T05:21:28;95002.38;;;6.25;73.09
43553;BME280;29153;42.696;23.218;2023-02-20T05:24:13;95000.81;;;6.13;73.67
43553;BME280;29153;42.696;23.218;2023-02-20T05:26:41;95006.70;;;6.03;74.15
43553;BME280;29153;42.696;23.218;2023-02-20T05:29:08;95009.69;;;6.09;73.95
43553;BME280;29153;42.696;23.218;2023-02-20T05:31:37;95010.17;;;6.06;74.21
43553;BME280;29153;42.696;23.218;2023-02-20T05:34:05;95022.70;;;6.02;74.80
43553;BME280;29153;42.696;23.218;2023-02-20T05:36:34;95035.62;;;6.03;74.98
43553;BME280;29153;42.696;23.218;2023-02-20T05:39:04;95040.92;;;6.06;75.57
43553;BME280;29153;42.696;23.218;2023-02-20T05:41:32;95036.83;;;6.12;75.66
43553;BME280;29153;42.696;23.218;2023-02-20T05:43:59;95034.97;;;6.10;76.21
43553;BME280;29153;42.696;23.218;2023-02-20T05:46:27;95037.89;;;6.11;76.01
43553;BME280;29153;42.696;23.218;2023-02-20T05:48:54;95043.33;;;6.21;76.06
43553;BME280;29153;42.696;23.218;2023-02-20T05:51:25;95035.41;;;6.19;76.10
43553;BME280;29153;42.696;23.218;2023-02-20T05:53:53;95039.49;;;6.26;75.68
43553;BME280;29153;42.696;23.218;2023-02-20T05:56:21;95038.31;;;6.34;75.44
43553;BME280;29153;42.696;23.218;2023-02-20T05:58:49;95027.84;;;6.51;74.66
43553;BME280;29153;42.696;23.218;2023-02-20T06:01:18;95043.44;;;6.55;74.33
43553;BME280;29153;42.696;23.218;2023-02-20T06:03:46;95037.44;;;6.57;74.38
43553;BME280;29153;42.696;23.218;2023-02-20T06:06:14;95037.34;;;6.66;73.85
43553;BME280;29153;42.696;23.218;2023-02-20T06:08:42;95049.28;;;6.71;73.58
43553;BME280;29153;42.696;23.218;2023-02-20T06:11:11;95051.25;;;6.78;73.89
43553;BME280;29153;42.696;23.218;2023-02-20T06:13:44;95061.30;;;6.95;72.24
43553;BME280;29153;42.696;23.218;2023-02-20T06:16:09;95062.98;;;7.01;72.74
43553;BME280;29153;42.696;23.218;2023-02-20T06:18:41;95064.66;;;7.07;72.94
43553;BME280;29153;42.696;23.218;2023-02-20T06:21:09;95061.91;;;7.16;73.11
43553;BME280;29153;42.696;23.218;2023-02-20T06:23:41;95057.08;;;7.27;73.53
43553;BME280;29153;42.696;23.218;2023-02-20T06:26:08;95060.51;;;7.45;71.24
43553;BME280;29153;42.696;23.218;2023-02-20T06:28:37;95057.55;;;7.58;71.04
43553;BME280;29153;42.696;23.218;2023-02-20T06:31:06;95068.08;;;7.74;70.40
43553;BME280;29153;42.696;23.218;2023-02-20T06:33:34;95068.28;;;7.87;70.10
43553;BME280;29153;42.696;23.218;2023-02-20T06:36:03;95069.58;;;8.06;66.15
43553;BME280;29153;42.696;23.218;2023-02-20T06:38:30;95089.09;;;8.05;65.36
43553;BME280;29153;42.696;23.218;2023-02-20T06:41:00;95084.98;;;8.14;66.06
43553;BME280;29153;42.696;23.218;2023-02-20T06:43:27;95087.98;;;8.20;64.29
43553;BME280;29153;42.696;23.218;2023-02-20T06:45:54;95104.12;;;8.24;64.35
43553;BME280;29153;42.696;23.218;2023-02-20T06:48:22;95101.84;;;8.30;65.35
43553;BME280;29153;42.696;23.218;2023-02-20T06:50:49;95105.33;;;8.33;65.21
43553;BME280;29153;42.696;23.218;2023-02-20T06:53:18;95101.44;;;8.21;64.66
43553;BME280;29153;42.696;23.218;2023-02-20T06:55:46;95108.41;;;8.08;63.62
43553;BME280;29153;42.696;23.218;2023-02-20T06:58:13;95115.66;;;7.99;65.03
43553;BME280;29153;42.696;23.218;2023-02-20T07:00:41;95105.70;;;8.03;64.11
43553;BME280;29153;42.696;23.218;2023-02-20T07:03:08;95109.58;;;7.98;62.95
43553;BME280;29153;42.696;23.218;2023-02-20T07:05:36;95109.98;;;7.90;62.53
43553;BME280;29153;42.696;23.218;2023-02-20T07:08:03;95133.13;;;7.86;62.05
43553;BME280;29153;42.696;23.218;2023-02-20T07:10:31;95116.45;;;7.99;61.60
43553;BME280;29153;42.696;23.218;2023-02-20T07:12:58;95123.04;;;8.18;60.86
43553;BME280;29153;42.696;23.218;2023-02-20T07:15:26;95136.81;;;8.40;59.48
43553;BME280;29153;42.696;23.218;2023-02-20T07:17:53;95132.58;;;8.60;58.79
43553;BME280;29153;42.696;23.218;2023-02-20T07:20:20;95129.69;;;8.81;58.11
43553;BME280;29153;42.696;23.218;2023-02-20T07:22:52;95137.98;;;8.92;56.98
43553;BME280;29153;42.696;23.218;2023-02-20T07:25:22;95135.89;;;9.19;56.73
43553;BME280;29153;42.696;23.218;2023-02-20T07:27:50;95142.58;;;9.29;55.20
43553;BME280;29153;42.696;23.218;2023-02-20T07:30:17;95146.69;;;9.14;55.70
43553;BME280;29153;42.696;23.218;2023-02-20T07:32:45;95156.10;;;9.05;55.34
43553;BME280;29153;42.696;23.218;2023-02-20T07:35:12;95144.72;;;9.02;55.67
43553;BME280;29153;42.696;23.218;2023-02-20T07:37:40;95136.25;;;9.30;54.50
43553;BME280;29153;42.696;23.218;2023-02-20T07:40:07;95140.20;;;9.27;54.44
43553;BME280;29153;42.696;23.218;2023-02-20T07:42:35;95141.77;;;9.55;53.43
43553;BME280;29153;42.696;23.218;2023-02-20T07:45:03;95128.92;;;9.66;53.82
43553;BME280;29153;42.696;23.218;2023-02-20T07:47:30;95134.41;;;9.59;52.97
43553;BME280;29153;42.696;23.218;2023-02-20T07:49:58;95146.14;;;9.42;52.08
43553;BME280;29153;42.696;23.218;2023-02-20T07:52:26;95136.08;;;9.39;53.58
43553;BME280;29153;42.696;23.218;2023-02-20T07:54:53;95137.12;;;9.38;53.49
43553;BME280;29153;42.696;23.218;2023-02-20T07:57:21;95137.80;;;9.55;53.57
43553;BME280;29153;42.696;23.218;2023-02-20T07:59:48;95143.30;;;9.80;54.08
43553;BME280;29153;42.696;23.218;2023-02-20T08:02:16;95140.19;;;9.88;51.88
43553;BME280;29153;42.696;23.218;2023-02-20T08:04:43;95089.62;;;9.82;50.52
43553;BME280;29153;42.696;23.218;2023-02-20T08:07:11;95155.19;;;10.12;50.87
43553;BME280;29153;42.696;23.218;2023-02-20T08:09:49;95148.20;;;10.33;51.44
43553;BME280;29153;42.696;23.218;2023-02-20T08:12:16;95158.27;;;10.36;50.60
43553;BME280;29153;42.696;23.218;2023-02-20T08:14:44;95171.97;;;10.70;49.15
43553;BME280;29153;42.696;23.218;2023-02-20T08:17:11;95170.42;;;10.74;49.40
43553;BME280;29153;42.696;23.218;2023-02-20T08:19:39;95174.75;;;10.43;49.28
43553;BME280;29153;42.696;23.218;2023-02-20T08:22:06;95170.27;;;10.12;50.30
43553;BME280;29153;42.696;23.218;2023-02-20T08:24:34;95180.30;;;10.39;51.05
43553;BME280;29153;42.696;23.218;2023-02-20T08:27:01;95179.63;;;10.64;49.94
43553;BME280;29153;42.696;23.218;2023-02-20T08:29:29;95178.52;;;10.57;49.95
43553;BME280;29153;42.696;23.218;2023-02-20T08:31:57;95191.31;;;10.70;49.87
43553;BME280;29153;42.696;23.218;2023-02-20T08:34:26;95171.00;;;10.88;50.27
43553;BME280;29153;42.696;23.218;2023-02-20T08:36:54;95176.57;;;10.92;49.09
43553;BME280;29153;42.696;23.218;2023-02-20T08:39:22;95177.48;;;10.58;50.52
43553;BME280;29153;42.696;23.218;2023-02-20T08:41:49;95170.26;;;10.43;49.55
43553;BME280;29153;42.696;23.218;2023-02-20T08:44:17;95172.70;;;10.58;50.21
43553;BME280;29153;42.696;23.218;2023-02-20T08:46:48;95154.61;;;10.44;49.11
43553;BME280;29153;42.696;23.218;2023-02-20T08:49:17;95170.85;;;10.58;49.28
43553;BME280;29153;42.696;23.218;2023-02-20T08:51:51;95161.69;;;10.29;49.18
43553;BME280;29153;42.696;23.218;2023-02-20T08:54:15;95153.08;;;10.51;49.89
43553;BME280;29153;42.696;23.218;2023-02-20T08:56:43;95153.08;;;10.51;49.89
43553;BME280;29153;42.696;23.218;2023-02-20T08:59:10;95135.14;;;10.71;49.95
43553;BME280;29153;42.696;23.218;2023-02-20T09:01:40;95139.12;;;10.71;49.29
43553;BME280;29153;42.696;23.218;2023-02-20T09:04:09;95146.42;;;11.11;49.03
43553;BME280;29153;42.696;23.218;2023-02-20T09:06:37;95135.02;;;11.13;49.88
43553;BME280;29153;42.696;23.218;2023-02-20T09:09:04;95135.47;;;10.87;47.82
43553;BME280;29153;42.696;23.218;2023-02-20T09:11:34;95123.58;;;11.00;47.87
43553;BME280;29153;42.696;23.218;2023-02-20T09:14:02;95118.03;;;10.99;47.94
43553;BME280;29153;42.696;23.218;2023-02-20T09:16:29;95122.02;;;11.04;49.13
43553;BME280;29153;42.696;23.218;2023-02-20T09:18:58;95123.37;;;11.19;47.63
43553;BME280;29153;42.696;23.218;2023-02-20T09:21:27;95094.22;;;11.24;47.72
43553;BME280;29153;42.696;23.218;2023-02-20T09:23:54;95112.00;;;11.36;47.04
43553;BME280;29153;42.696;23.218;2023-02-20T09:26:27;95104.05;;;11.56;46.27
43553;BME280;29153;42.696;23.218;2023-02-20T09:28:51;95111.48;;;11.69;46.44
43553;BME280;29153;42.696;23.218;2023-02-20T09:31:18;95111.22;;;11.38;47.22
43553;BME280;29153;42.696;23.218;2023-02-20T09:33:46;95111.22;;;11.38;47.22
43553;BME280;29153;42.696;23.218;2023-02-20T09:36:14;95108.84;;;11.69;48.02
43553;BME280;29153;42.696;23.218;2023-02-20T09:38:41;95110.97;;;11.62;46.54
43553;BME280;29153;42.696;23.218;2023-02-20T09:41:39;95096.63;;;11.53;46.71
43553;BME280;29153;42.696;23.218;2023-02-20T09:44:11;95106.19;;;11.49;47.19
43553;BME280;29153;42.696;23.218;2023-02-20T09:46:36;95100.86;;;11.39;45.36
43553;BME280;29153;42.696;23.218;2023-02-20T09:49:13;95100.86;;;11.39;45.36
43553;BME280;29153;42.696;23.218;2023-02-20T09:52:02;95088.67;;;11.46;46.97
43553;BME280;29153;42.696;23.218;2023-02-20T09:54:35;95108.30;;;11.57;46.43
43553;BME280;29153;42.696;23.218;2023-02-20T09:57:05;95100.87;;;11.62;44.66
43553;BME280;29153;42.696;23.218;2023-02-20T09:59:41;95091.06;;;11.62;44.29
43553;BME280;29153;42.696;23.218;2023-02-20T10:02:15;95110.16;;;11.49;43.98
43553;BME280;29153;42.696;23.218;2023-02-20T10:04:48;95089.45;;;11.28;42.50
43553;BME280;29153;42.696;23.218;2023-02-20T10:07:24;95108.54;;;11.30;43.41
43553;BME280;29153;42.696;23.218;2023-02-20T10:09:53;95093.42;;;11.31;42.97
43553;BME280;29153;42.696;23.218;2023-02-20T10:18:07;95090.53;;;11.50;42.68
43553;BME280;29153;42.696;23.218;2023-02-20T10:20:38;95093.73;;;11.72;41.82
43553;BME280;29153;42.696;23.218;2023-02-20T10:25:47;95087.06;;;11.60;40.74
43553;BME280;29153;42.696;23.218;2023-02-20T10:28:17;95098.23;;;11.90;42.09
43553;BME280;29153;42.696;23.218;2023-02-20T10:30:48;95086.53;;;12.13;40.07
43553;BME280;29153;42.696;23.218;2023-02-20T10:33:46;95087.33;;;12.14;41.09
43553;BME280;29153;42.696;23.218;2023-02-20T10:36:34;95087.33;;;12.14;41.09
43553;BME280;29153;42.696;23.218;2023-02-20T10:39:08;95075.91;;;12.13;40.69
43553;BME280;29153;42.696;23.218;2023-02-20T10:44:24;95075.38;;;12.09;40.71
43553;BME280;29153;42.696;23.218;2023-02-20T10:52:41;95052.05;;;11.91;41.79
43553;BME280;29153;42.696;23.218;2023-02-20T10:55:17;95061.60;;;11.97;41.73
43553;BME280;29153;42.696;23.218;2023-02-20T10:57:44;95054.91;;;12.22;42.03
43553;BME280;29153;42.696;23.218;2023-02-20T11:00:13;95044.75;;;12.39;40.66
43553;BME280;29153;42.696;23.218;2023-02-20T11:02:44;95043.91;;;12.46;42.45
43553;BME280;29153;42.696;23.218;2023-02-20T11:05:18;95057.72;;;12.51;41.45
43553;BME280;29153;42.696;23.218;2023-02-20T11:07:47;95045.20;;;12.61;40.00
43553;BME280;29153;42.696;23.218;2023-02-20T11:10:15;95045.20;;;12.61;40.00
43553;BME280;29153;42.696;23.218;2023-02-20T11:12:56;95060.86;;;12.65;41.65
43553;BME280;29153;42.696;23.218;2023-02-20T11:15:28;95056.13;;;12.52;39.94
43553;BME280;29153;42.696;23.218;2023-02-20T11:17:58;95053.02;;;12.30;41.30
43553;BME280;29153;42.696;23.218;2023-02-20T11:20:37;95049.19;;;12.61;41.61
43553;BME280;29153;42.696;23.218;2023-02-20T11:23:06;95052.94;;;12.53;42.27
43553;BME280;29153;42.696;23.218;2023-02-20T11:25:40;95052.94;;;12.53;42.27
43553;BME280;29153;42.696;23.218;2023-02-20T11:28:10;95059.86;;;12.46;41.50
43553;BME280;29153;42.696;23.218;2023-02-20T11:30:40;95065.96;;;12.52;40.95
43553;BME280;29153;42.696;23.218;2023-02-20T11:33:20;95070.50;;;12.49;41.39
43553;BME280;29153;42.696;23.218;2023-02-20T11:35:49;95082.06;;;12.78;42.43
43553;BME280;29153;42.696;23.218;2023-02-20T11:43:31;95080.12;;;12.32;41.03
43553;BME280;29153;42.696;23.218;2023-02-20T11:46:17;95080.12;;;12.32;41.03
43553;BME280;29153;42.696;23.218;2023-02-20T11:49:07;95071.88;;;12.28;41.49
43553;BME280;29153;42.696;23.218;2023-02-20T11:51:44;95083.09;;;12.05;40.64
43553;BME280;29153;42.696;23.218;2023-02-20T11:54:24;95074.57;;;12.18;41.11
43553;BME280;29153;42.696;23.218;2023-02-20T11:57:01;95100.02;;;12.40;40.64
43553;BME280;29153;42.696;23.218;2023-02-20T11:59:41;95076.93;;;12.25;40.79
43553;BME280;29153;42.696;23.218;2023-02-20T12:04:44;95042.69;;;12.16;40.55
43553;BME280;29153;42.696;23.218;2023-02-20T12:07:27;95041.33;;;12.31;40.19
43553;BME280;29153;42.696;23.218;2023-02-20T12:10:08;95044.22;;;12.40;41.46
43553;BME280;29153;42.696;23.218;2023-02-20T12:12:29;95028.45;;;12.58;41.21
43553;BME280;29153;42.696;23.218;2023-02-20T12:14:57;95023.28;;;12.25;39.75
43553;BME280;29153;42.696;23.218;2023-02-20T12:17:33;95028.34;;;12.22;40.32
43553;BME280;29153;42.696;23.218;2023-02-20T12:20:17;95028.34;;;12.22;40.32
43553;BME280;29153;42.696;23.218;2023-02-20T12:22:44;95054.11;;;12.16;40.76
43553;BME280;29153;42.696;23.218;2023-02-20T12:25:18;95037.43;;;12.01;40.05
43553;BME280;29153;42.696;23.218;2023-02-20T12:28:08;95041.14;;;12.05;41.20
43553;BME280;29153;42.696;23.218;2023-02-20T12:33:57;95041.41;;;12.01;40.56
43553;BME280;29153;42.696;23.218;2023-02-20T12:36:35;95056.02;;;11.96;40.71
43553;BME280;29153;42.696;23.218;2023-02-20T12:42:12;95051.52;;;11.96;40.63
43553;BME280;29153;42.696;23.218;2023-02-20T12:47:42;95042.52;;;11.84;42.11
43553;BME280;29153;42.696;23.218;2023-02-20T12:53:17;95026.30;;;11.56;41.15
43553;BME280;29153;42.696;23.218;2023-02-20T12:55:55;95026.30;;;11.56;41.15
43553;BME280;29153;42.696;23.218;2023-02-20T13:00:59;95029.77;;;11.59;42.14
43553;BME280;29153;42.696;23.218;2023-02-20T13:06:21;95035.86;;;11.57;41.70
43553;BME280;29153;42.696;23.218;2023-02-20T13:11:43;95050.20;;;11.73;42.06
43553;BME280;29153;42.696;23.218;2023-02-20T13:14:18;95049.68;;;11.79;42.29
43553;BME280;29153;42.696;23.218;2023-02-20T13:17:15;95049.68;;;11.79;42.29
43553;BME280;29153;42.696;23.218;2023-02-20T13:22:20;95042.48;;;11.95;41.24
43553;BME280;29153;42.696;23.218;2023-02-20T13:24:48;95049.66;;;11.92;42.34
43553;BME280;29153;42.696;23.218;2023-02-20T13:27:30;95029.77;;;11.79;43.06
43553;BME280;29153;42.696;23.218;2023-02-20T13:30:19;95038.77;;;11.85;43.27
43553;BME280;29153;42.696;23.218;2023-02-20T13:32:31;95036.12;;;11.88;42.64
43553;BME280;29153;42.696;23.218;2023-02-20T13:37:56;95052.31;;;11.81;42.06
43553;BME280;29153;42.696;23.218;2023-02-20T13:43:17;95059.23;;;11.75;42.82
43553;BME280;29153;42.696;23.218;2023-02-20T13:46:07;95059.23;;;11.75;42.82
43553;BME280;29153;42.696;23.218;2023-02-20T13:48:42;95073.02;;;11.49;43.77
43553;BME280;29153;42.696;23.218;2023-02-20T13:50:48;95073.02;;;11.49;43.77
43553;BME280;29153;42.696;23.218;2023-02-20T13:53:16;95079.63;;;11.26;44.49
43553;BME280;29153;42.696;23.218;2023-02-20T13:55:43;95062.91;;;11.11;45.25
43553;BME280;29153;42.696;23.218;2023-02-20T13:58:14;95046.70;;;10.97;45.19
43553;BME280;29153;42.696;23.218;2023-02-20T14:00:50;95046.47;;;11.04;45.36
43553;BME280;29153;42.696;23.218;2023-02-20T14:03:28;95048.03;;;10.97;45.15
43553;BME280;29153;42.696;23.218;2023-02-20T14:06:07;95048.03;;;10.97;45.15
43553;BME280;29153;42.696;23.218;2023-02-20T14:08:39;95054.95;;;11.11;45.02
43553;BME280;29153;42.696;23.218;2023-02-20T14:11:13;95057.63;;;11.33;45.80
43553;BME280;29153;42.696;23.218;2023-02-20T14:13:42;95057.63;;;11.33;45.80
43553;BME280;29153;42.696;23.218;2023-02-20T14:18:59;95061.06;;;11.34;45.12
43553;BME280;29153;42.696;23.218;2023-02-20T14:21:28;95048.61;;;11.32;44.55
43553;BME280;29153;42.696;23.218;2023-02-20T14:23:56;95062.92;;;11.31;46.25
43553;BME280;29153;42.696;23.218;2023-02-20T14:26:31;95067.42;;;11.23;45.22
43553;BME280;29153;42.696;23.218;2023-02-20T14:28:59;95060.25;;;11.11;45.82
43553;BME280;29153;42.696;23.218;2023-02-20T14:33:59;95069.46;;;10.83;46.25